sensor_id;sensor_type;location;lat;lon;timestamp;temperature;humidity
68609;SHT31;55581;46.718;7.690;2023-04-28T00:01:23;13.41;68.86
68609;SHT31;55581;46.718;7.690;2023-04-28T00:03:49;13.63;66.71
68609;SHT31;55581;46.718;7.690;2023-04-28T00:06:14;13.76;68.14
68609;SHT31;55581;46.718;7.690;2023-04-28T00:08:43;13.84;66.32
68609;SHT31;55581;46.718;7.690;2023-04-28T00:11:11;13.91;66.67
68609;SHT31;55581;46.718;7.690;2023-04-28T00:13:37;13.91;66.99
68609;SHT31;55581;46.718;7.690;2023-04-28T00:16:03;13.90;68.05
68609;SHT31;55581;46.718;7.690;2023-04-28T00:18:28;13.79;67.70
68609;SHT31;55581;46.718;7.690;2023-04-28T00:20:54;13.66;70.10
68609;SHT31;55581;46.718;7.690;2023-04-28T00:23:22;13.58;68.38
68609;SHT31;55581;46.718;7.690;2023-04-28T00:25:54;13.62;67.99
68609;SHT31;55581;46.718;7.690;2023-04-28T00:28:20;13.73;67.07
68609;SHT31;55581;46.718;7.690;2023-04-28T00:30:46;13.71;67.50
68609;SHT31;55581;46.718;7.690;2023-04-28T00:33:11;13.77;67.23
68609;SHT31;55581;46.718;7.690;2023-04-28T00:35:38;13.76;67.87
68609;SHT31;55581;46.718;7.690;2023-04-28T00:38:03;13.83;66.63
68609;SHT31;55581;46.718;7.690;2023-04-28T00:40:32;13.86;66.17
68609;SHT31;55581;46.718;7.690;2023-04-28T00:42:58;13.83;66.41
68609;SHT31;55581;46.718;7.690;2023-04-28T00:45:26;13.84;67.06
68609;SHT31;55581;46.718;7.690;2023-04-28T00:47:51;13.84;67.17
68609;SHT31;55581;46.718;7.690;2023-04-28T00:50:17;13.74;67.44
68609;SHT31;55581;46.718;7.690;2023-04-28T00:52:42;13.65;68.36
68609;SHT31;55581;46.718;7.690;2023-04-28T00:55:08;13.62;70.75
68609;SHT31;55581;46.718;7.690;2023-04-28T00:57:34;13.56;70.55
68609;SHT31;55581;46.718;7.690;2023-04-28T01:00:00;13.51;69.98
68609;SHT31;55581;46.718;7.690;2023-04-28T01:02:26;13.51;69.26
68609;SHT31;55581;46.718;7.690;2023-04-28T01:04:54;13.45;68.78
68609;SHT31;55581;46.718;7.690;2023-04-28T01:07:20;13.45;68.98
68609;SHT31;55581;46.718;7.690;2023-04-28T01:09:45;13.52;68.80
68609;SHT31;55581;46.718;7.690;2023-04-28T01:12:12;13.49;68.79
68609;SHT31;55581;46.718;7.690;2023-04-28T01:14:40;13.51;69.03
68609;SHT31;55581;46.718;7.690;2023-04-28T01:17:06;13.48;69.32
68609;SHT31;55581;46.718;7.690;2023-04-28T01:19:32;13.46;69.52
68609;SHT31;55581;46.718;7.690;2023-04-28T01:21:57;13.36;70.02
68609;SHT31;55581;46.718;7.690;2023-04-28T01:24:23;13.29;70.93
68609;SHT31;55581;46.718;7.690;2023-04-28T01:26:48;13.34;70.75
68609;SHT31;55581;46.718;7.690;2023-04-28T01:29:14;13.28;71.53
68609;SHT31;55581;46.718;7.690;2023-04-28T01:31:39;13.18;72.90
68609;SHT31;55581;46.718;7.690;2023-04-28T01:34:07;13.31;70.17
68609;SHT31;55581;46.718;7.690;2023-04-28T01:36:33;13.29;70.35
68609;SHT31;55581;46.718;7.690;2023-04-28T01:38:58;13.38;69.06
68609;SHT31;55581;46.718;7.690;2023-04-28T01:41:24;13.56;67.73
68609;SHT31;55581;46.718;7.690;2023-04-28T01:43:49;13.63;67.36
68609;SHT31;55581;46.718;7.690;2023-04-28T01:46:15;13.66;67.16
68609;SHT31;55581;46.718;7.690;2023-04-28T01:48:40;13.71;66.85
68609;SHT31;55581;46.718;7.690;2023-04-28T01:51:08;13.76;66.10
68609;SHT31;55581;46.718;7.690;2023-04-28T01:53:33;13.79;66.10
68609;SHT31;55581;46.718;7.690;2023-04-28T01:55:58;13.81;66.11
68609;SHT31;55581;46.718;7.690;2023-04-28T01:58:26;13.81;66.37
68609;SHT31;55581;46.718;7.690;2023-04-28T02:00:51;13.69;67.06
68609;SHT31;55581;46.718;7.690;2023-04-28T02:03:17;13.65;68.13
68609;SHT31;55581;46.718;7.690;2023-04-28T02:05:45;13.62;68.75
68609;SHT31;55581;46.718;7.690;2023-04-28T02:08:11;13.55;69.55
68609;SHT31;55581;46.718;7.690;2023-04-28T02:10:36;13.45;70.63
68609;SHT31;55581;46.718;7.690;2023-04-28T02:13:01;13.46;70.77
68609;SHT31;55581;46.718;7.690;2023-04-28T02:15:27;13.36;71.09
68609;SHT31;55581;46.718;7.690;2023-04-28T02:17:52;13.32;70.70
68609;SHT31;55581;46.718;7.690;2023-04-28T02:20:18;13.32;70.94
68609;SHT31;55581;46.718;7.690;2023-04-28T02:22:43;13.36;70.02
68609;SHT31;55581;46.718;7.690;2023-04-28T02:25:11;13.45;68.96
68609;SHT31;55581;46.718;7.690;2023-04-28T02:27:36;13.53;68.19
68609;SHT31;55581;46.718;7.690;2023-04-28T02:30:05;13.52;67.99
68609;SHT31;55581;46.718;7.690;2023-04-28T02:32:31;13.56;67.91
68609;SHT31;55581;46.718;7.690;2023-04-28T02:34:57;13.59;67.93
68609;SHT31;55581;46.718;7.690;2023-04-28T02:37:22;13.59;67.71
68609;SHT31;55581;46.718;7.690;2023-04-28T02:39:48;13.63;67.43
68609;SHT31;55581;46.718;7.690;2023-04-28T02:42:13;13.60;68.49
68609;SHT31;55581;46.718;7.690;2023-04-28T02:44:39;13.49;70.22
68609;SHT31;55581;46.718;7.690;2023-04-28T02:47:04;13.29;72.01
68609;SHT31;55581;46.718;7.690;2023-04-28T02:49:30;13.32;71.47
68609;SHT31;55581;46.718;7.690;2023-04-28T02:51:56;13.32;72.99
68609;SHT31;55581;46.718;7.690;2023-04-28T02:54:21;13.18;73.22
68609;SHT31;55581;46.718;7.690;2023-04-28T02:56:55;13.16;73.15
68609;SHT31;55581;46.718;7.690;2023-04-28T02:59:22;13.12;72.80
68609;SHT31;55581;46.718;7.690;2023-04-28T03:01:48;13.14;71.50
68609;SHT31;55581;46.718;7.690;2023-04-28T03:04:14;13.12;71.71
68609;SHT31;55581;46.718;7.690;2023-04-28T03:06:41;13.04;73.38
68609;SHT31;55581;46.718;7.690;2023-04-28T03:09:07;12.93;74.23
68609;SHT31;55581;46.718;7.690;2023-04-28T03:11:32;12.90;74.86
68609;SHT31;55581;46.718;7.690;2023-04-28T03:13:57;12.84;75.52
68609;SHT31;55581;46.718;7.690;2023-04-28T03:16:23;12.83;75.20
68609;SHT31;55581;46.718;7.690;2023-04-28T03:18:48;12.72;77.46
68609;SHT31;55581;46.718;7.690;2023-04-28T03:21:14;12.70;77.17
68609;SHT31;55581;46.718;7.690;2023-04-28T03:23:39;12.76;76.25
68609;SHT31;55581;46.718;7.690;2023-04-28T03:26:05;12.79;75.57
68609;SHT31;55581;46.718;7.690;2023-04-28T03:28:33;12.81;74.96
68609;SHT31;55581;46.718;7.690;2023-04-28T03:30:58;12.88;74.65
68609;SHT31;55581;46.718;7.690;2023-04-28T03:33:24;12.91;74.47
68609;SHT31;55581;46.718;7.690;2023-04-28T03:35:49;12.81;75.40
68609;SHT31;55581;46.718;7.690;2023-04-28T03:38:15;12.79;74.65
68609;SHT31;55581;46.718;7.690;2023-04-28T03:40:40;12.73;75.25
68609;SHT31;55581;46.718;7.690;2023-04-28T03:43:06;12.79;75.26
68609;SHT31;55581;46.718;7.690;2023-04-28T03:45:31;12.79;75.94
68609;SHT31;55581;46.718;7.690;2023-04-28T03:47:57;12.75;76.43
68609;SHT31;55581;46.718;7.690;2023-04-28T03:50:22;12.73;75.96
68609;SHT31;55581;46.718;7.690;2023-04-28T03:52:53;12.75;76.35
68609;SHT31;55581;46.718;7.690;2023-04-28T03:55:20;12.73;76.69
68609;SHT31;55581;46.718;7.690;2023-04-28T03:57:46;12.70;76.61
68609;SHT31;55581;46.718;7.690;2023-04-28T04:00:13;12.69;75.93
68609;SHT31;55581;46.718;7.690;2023-04-28T04:02:38;12.66;75.86
68609;SHT31;55581;46.718;7.690;2023-04-28T04:05:04;12.64;75.90
68609;SHT31;55581;46.718;7.690;2023-04-28T04:07:29;12.67;75.40
68609;SHT31;55581;46.718;7.690;2023-04-28T04:09:55;12.69;76.62
68609;SHT31;55581;46.718;7.690;2023-04-28T04:12:20;12.64;76.63
68609;SHT31;55581;46.718;7.690;2023-04-28T04:14:46;12.63;76.10
68609;SHT31;55581;46.718;7.690;2023-04-28T04:17:11;12.48;78.14
68609;SHT31;55581;46.718;7.690;2023-04-28T04:19:36;12.55;75.19
68609;SHT31;55581;46.718;7.690;2023-04-28T04:22:02;12.61;74.36
68609;SHT31;55581;46.718;7.690;2023-04-28T04:24:30;12.56;77.81
68609;SHT31;55581;46.718;7.690;2023-04-28T04:26:55;12.56;77.19
68609;SHT31;55581;46.718;7.690;2023-04-28T04:29:21;12.76;72.16
68609;SHT31;55581;46.718;7.690;2023-04-28T04:31:46;13.05;67.21
68609;SHT31;55581;46.718;7.690;2023-04-28T04:34:13;13.24;67.72
68609;SHT31;55581;46.718;7.690;2023-04-28T04:36:41;13.21;71.27
68609;SHT31;55581;46.718;7.690;2023-04-28T04:39:06;13.21;69.39
68609;SHT31;55581;46.718;7.690;2023-04-28T04:41:32;13.07;73.75
68609;SHT31;55581;46.718;7.690;2023-04-28T04:43:57;12.95;74.51
68609;SHT31;55581;46.718;7.690;2023-04-28T04:46:22;12.91;73.82
68609;SHT31;55581;46.718;7.690;2023-04-28T04:48:50;12.81;74.69
68609;SHT31;55581;46.718;7.690;2023-04-28T04:51:16;12.69;75.09
68609;SHT31;55581;46.718;7.690;2023-04-28T04:53:41;12.69;75.84
68609;SHT31;55581;46.718;7.690;2023-04-28T04:56:09;12.64;76.94
68609;SHT31;55581;46.718;7.690;2023-04-28T04:58:35;12.66;77.15
68609;SHT31;55581;46.718;7.690;2023-04-28T05:01:00;12.66;77.93
68609;SHT31;55581;46.718;7.690;2023-04-28T05:03:26;12.66;78.42
68609;SHT31;55581;46.718;7.690;2023-04-28T05:05:51;12.70;78.46
68609;SHT31;55581;46.718;7.690;2023-04-28T05:08:17;12.75;75.84
68609;SHT31;55581;46.718;7.690;2023-04-28T05:10:45;12.72;76.01
68609;SHT31;55581;46.718;7.690;2023-04-28T05:13:10;12.79;75.13
68609;SHT31;55581;46.718;7.690;2023-04-28T05:15:36;12.88;73.92
68609;SHT31;55581;46.718;7.690;2023-04-28T05:18:01;12.95;72.91
68609;SHT31;55581;46.718;7.690;2023-04-28T05:20:33;12.97;72.20
68609;SHT31;55581;46.718;7.690;2023-04-28T05:22:58;13.08;70.76
68609;SHT31;55581;46.718;7.690;2023-04-28T05:25:23;13.08;70.87
68609;SHT31;55581;46.718;7.690;2023-04-28T05:27:49;13.15;71.67
68609;SHT31;55581;46.718;7.690;2023-04-28T05:30:15;13.15;72.14
68609;SHT31;55581;46.718;7.690;2023-04-28T05:32:40;13.11;72.60
68609;SHT31;55581;46.718;7.690;2023-04-28T05:35:06;12.94;75.59
68609;SHT31;55581;46.718;7.690;2023-04-28T05:37:31;12.94;75.55
68609;SHT31;55581;46.718;7.690;2023-04-28T05:39:57;12.79;76.59
68609;SHT31;55581;46.718;7.690;2023-04-28T05:42:22;12.67;78.01
68609;SHT31;55581;46.718;7.690;2023-04-28T05:44:50;12.75;76.67
68609;SHT31;55581;46.718;7.690;2023-04-28T05:47:15;12.67;77.33
68609;SHT31;55581;46.718;7.690;2023-04-28T05:49:41;12.61;78.58
68609;SHT31;55581;46.718;7.690;2023-04-28T05:52:06;12.69;77.73
68609;SHT31;55581;46.718;7.690;2023-04-28T05:54:34;12.61;76.31
68609;SHT31;55581;46.718;7.690;2023-04-28T05:57:00;12.56;77.63
68609;SHT31;55581;46.718;7.690;2023-04-28T05:59:26;12.72;74.69
68609;SHT31;55581;46.718;7.690;2023-04-28T06:01:52;12.75;74.71
68609;SHT31;55581;46.718;7.690;2023-04-28T06:04:18;12.72;76.51
68609;SHT31;55581;46.718;7.690;2023-04-28T06:06:43;12.75;76.60
68609;SHT31;55581;46.718;7.690;2023-04-28T06:09:09;12.87;76.00
68609;SHT31;55581;46.718;7.690;2023-04-28T06:11:34;12.87;75.62
68609;SHT31;55581;46.718;7.690;2023-04-28T06:14:00;12.88;75.93
68609;SHT31;55581;46.718;7.690;2023-04-28T06:16:27;12.91;75.29
68609;SHT31;55581;46.718;7.690;2023-04-28T06:18:53;12.93;74.54
68609;SHT31;55581;46.718;7.690;2023-04-28T06:21:18;12.94;74.93
68609;SHT31;55581;46.718;7.690;2023-04-28T06:23:45;12.93;74.92
68609;SHT31;55581;46.718;7.690;2023-04-28T06:26:13;12.94;75.48
68609;SHT31;55581;46.718;7.690;2023-04-28T06:28:39;13.00;75.06
68609;SHT31;55581;46.718;7.690;2023-04-28T06:31:04;13.05;75.61
68609;SHT31;55581;46.718;7.690;2023-04-28T06:33:29;13.26;72.49
68609;SHT31;55581;46.718;7.690;2023-04-28T06:35:55;13.34;75.01
68609;SHT31;55581;46.718;7.690;2023-04-28T06:38:21;13.32;75.98
68609;SHT31;55581;46.718;7.690;2023-04-28T06:40:51;13.46;74.46
68609;SHT31;55581;46.718;7.690;2023-04-28T06:43:16;13.49;73.99
68609;SHT31;55581;46.718;7.690;2023-04-28T06:45:41;13.48;75.29
68609;SHT31;55581;46.718;7.690;2023-04-28T06:48:07;13.65;73.46
68609;SHT31;55581;46.718;7.690;2023-04-28T06:50:32;13.62;74.64
68609;SHT31;55581;46.718;7.690;2023-04-28T06:52:58;13.60;73.57
68609;SHT31;55581;46.718;7.690;2023-04-28T06:55:23;13.46;75.93
68609;SHT31;55581;46.718;7.690;2023-04-28T06:57:50;13.42;76.29
68609;SHT31;55581;46.718;7.690;2023-04-28T07:00:15;13.48;74.62
68609;SHT31;55581;46.718;7.690;2023-04-28T07:02:41;13.39;75.64
68609;SHT31;55581;46.718;7.690;2023-04-28T07:05:07;13.45;74.76
68609;SHT31;55581;46.718;7.690;2023-04-28T07:07:34;13.43;75.45
68609;SHT31;55581;46.718;7.690;2023-04-28T07:10:00;13.43;74.56
68609;SHT31;55581;46.718;7.690;2023-04-28T07:12:28;13.49;76.45
68609;SHT31;55581;46.718;7.690;2023-04-28T07:14:54;13.56;74.60
68609;SHT31;55581;46.718;7.690;2023-04-28T07:17:20;13.52;74.52
68609;SHT31;55581;46.718;7.690;2023-04-28T07:19:45;13.65;74.98
68609;SHT31;55581;46.718;7.690;2023-04-28T07:22:10;13.70;74.61
68609;SHT31;55581;46.718;7.690;2023-04-28T07:24:36;13.81;74.27
68609;SHT31;55581;46.718;7.690;2023-04-28T07:27:01;13.96;73.62
68609;SHT31;55581;46.718;7.690;2023-04-28T07:29:28;13.96;72.78
68609;SHT31;55581;46.718;7.690;2023-04-28T07:31:58;14.00;72.98
68609;SHT31;55581;46.718;7.690;2023-04-28T07:34:23;14.01;74.37
68609;SHT31;55581;46.718;7.690;2023-04-28T07:36:49;13.98;75.29
68609;SHT31;55581;46.718;7.690;2023-04-28T07:39:17;13.93;74.79
68609;SHT31;55581;46.718;7.690;2023-04-28T07:41:44;13.88;75.64
68609;SHT31;55581;46.718;7.690;2023-04-28T07:44:12;13.83;74.71
68609;SHT31;55581;46.718;7.690;2023-04-28T07:46:38;13.70;75.68
68609;SHT31;55581;46.718;7.690;2023-04-28T07:49:03;13.59;76.45
68609;SHT31;55581;46.718;7.690;2023-04-28T07:51:29;13.63;77.21
68609;SHT31;55581;46.718;7.690;2023-04-28T07:53:58;13.56;75.97
68609;SHT31;55581;46.718;7.690;2023-04-28T07:56:26;13.63;75.66
68609;SHT31;55581;46.718;7.690;2023-04-28T07:58:54;13.65;74.20
68609;SHT31;55581;46.718;7.690;2023-04-28T08:01:19;13.66;73.98
68609;SHT31;55581;46.718;7.690;2023-04-28T08:03:46;13.80;74.39
68609;SHT31;55581;46.718;7.690;2023-04-28T08:06:11;14.01;73.79
68609;SHT31;55581;46.718;7.690;2023-04-28T08:08:37;14.28;73.00
68609;SHT31;55581;46.718;7.690;2023-04-28T08:11:02;14.46;69.40
68609;SHT31;55581;46.718;7.690;2023-04-28T08:13:31;14.62;69.75
68609;SHT31;55581;46.718;7.690;2023-04-28T08:15:56;14.65;69.99
68609;SHT31;55581;46.718;7.690;2023-04-28T08:18:24;14.75;69.94
68609;SHT31;55581;46.718;7.690;2023-04-28T08:20:49;14.79;70.79
68609;SHT31;55581;46.718;7.690;2023-04-28T08:23:15;14.73;70.08
68609;SHT31;55581;46.718;7.690;2023-04-28T08:25:40;14.83;70.48
68609;SHT31;55581;46.718;7.690;2023-04-28T08:28:06;15.04;70.96
68609;SHT31;55581;46.718;7.690;2023-04-28T08:30:33;15.16;70.15
68609;SHT31;55581;46.718;7.690;2023-04-28T08:32:59;15.20;69.23
68609;SHT31;55581;46.718;7.690;2023-04-28T08:35:26;15.23;68.71
68609;SHT31;55581;46.718;7.690;2023-04-28T08:37:52;15.30;68.33
68609;SHT31;55581;46.718;7.690;2023-04-28T08:40:17;15.48;69.22
68609;SHT31;55581;46.718;7.690;2023-04-28T08:42:43;15.62;68.84
68609;SHT31;55581;46.718;7.690;2023-04-28T08:45:12;15.79;68.25
68609;SHT31;55581;46.718;7.690;2023-04-28T08:47:41;15.93;68.92
68609;SHT31;55581;46.718;7.690;2023-04-28T08:50:11;15.94;67.20
68609;SHT31;55581;46.718;7.690;2023-04-28T08:52:37;15.94;67.98
68609;SHT31;55581;46.718;7.690;2023-04-28T08:55:10;15.89;68.56
68609;SHT31;55581;46.718;7.690;2023-04-28T08:57:49;15.93;68.79
68609;SHT31;55581;46.718;7.690;2023-04-28T09:00:18;15.89;69.38
68609;SHT31;55581;46.718;7.690;2023-04-28T09:02:46;15.97;68.80
68609;SHT31;55581;46.718;7.690;2023-04-28T09:05:12;16.03;68.65
68609;SHT31;55581;46.718;7.690;2023-04-28T09:07:39;15.86;67.42
68609;SHT31;55581;46.718;7.690;2023-04-28T09:10:15;15.90;68.27
68609;SHT31;55581;46.718;7.690;2023-04-28T09:12:42;15.91;67.98
68609;SHT31;55581;46.718;7.690;2023-04-28T09:15:10;15.73;69.23
68609;SHT31;55581;46.718;7.690;2023-04-28T09:17:49;15.62;70.70
68609;SHT31;55581;46.718;7.690;2023-04-28T09:20:27;15.58;69.81
68609;SHT31;55581;46.718;7.690;2023-04-28T09:22:55;15.54;70.03
68609;SHT31;55581;46.718;7.690;2023-04-28T09:25:22;15.49;70.56
68609;SHT31;55581;46.718;7.690;2023-04-28T09:27:50;15.46;70.46
68609;SHT31;55581;46.718;7.690;2023-04-28T09:30:16;15.36;71.29
68609;SHT31;55581;46.718;7.690;2023-04-28T09:32:43;15.42;69.94
68609;SHT31;55581;46.718;7.690;2023-04-28T09:35:11;15.46;69.43
68609;SHT31;55581;46.718;7.690;2023-04-28T09:37:39;15.54;69.69
68609;SHT31;55581;46.718;7.690;2023-04-28T09:45:03;15.97;69.02
68609;SHT31;55581;46.718;7.690;2023-04-28T09:47:33;16.28;69.73
68609;SHT31;55581;46.718;7.690;2023-04-28T09:50:01;16.34;70.16
68609;SHT31;55581;46.718;7.690;2023-04-28T09:52:27;16.54;66.90
68609;SHT31;55581;46.718;7.690;2023-04-28T09:54:54;16.69;68.68
68609;SHT31;55581;46.718;7.690;2023-04-28T09:57:21;16.73;67.44
68609;SHT31;55581;46.718;7.690;2023-04-28T09:59:49;16.68;67.09
68609;SHT31;55581;46.718;7.690;2023-04-28T10:02:16;16.94;66.45
68609;SHT31;55581;46.718;7.690;2023-04-28T10:04:47;16.94;66.69
68609;SHT31;55581;46.718;7.690;2023-04-28T10:07:14;17.13;64.85
68609;SHT31;55581;46.718;7.690;2023-04-28T10:09:41;16.96;64.47
68609;SHT31;55581;46.718;7.690;2023-04-28T10:12:22;16.90;64.62
68609;SHT31;55581;46.718;7.690;2023-04-28T10:14:49;17.21;66.67
68609;SHT31;55581;46.718;7.690;2023-04-28T10:17:21;17.26;65.58
68609;SHT31;55581;46.718;7.690;2023-04-28T10:19:49;17.35;64.39
68609;SHT31;55581;46.718;7.690;2023-04-28T10:22:32;17.27;63.21
68609;SHT31;55581;46.718;7.690;2023-04-28T10:27:37;17.27;61.75
68609;SHT31;55581;46.718;7.690;2023-04-28T10:30:14;17.19;63.72
68609;SHT31;55581;46.718;7.690;2023-04-28T10:32:40;17.04;63.57
68609;SHT31;55581;46.718;7.690;2023-04-28T10:38:07;17.17;63.12
68609;SHT31;55581;46.718;7.690;2023-04-28T10:40:43;17.24;65.27
68609;SHT31;55581;46.718;7.690;2023-04-28T10:43:14;17.42;64.15
68609;SHT31;55581;46.718;7.690;2023-04-28T10:56:34;17.82;63.29
68609;SHT31;55581;46.718;7.690;2023-04-28T10:59:28;17.82;63.48
68609;SHT31;55581;46.718;7.690;2023-04-28T11:01:54;17.72;63.57
68609;SHT31;55581;46.718;7.690;2023-04-28T11:04:19;17.75;63.47
68609;SHT31;55581;46.718;7.690;2023-04-28T11:06:46;17.57;62.84
68609;SHT31;55581;46.718;7.690;2023-04-28T11:17:01;17.65;63.35
68609;SHT31;55581;46.718;7.690;2023-04-28T11:21:57;17.64;62.35
68609;SHT31;55581;46.718;7.690;2023-04-28T11:24:24;17.49;62.23
68609;SHT31;55581;46.718;7.690;2023-04-28T11:26:50;17.27;62.65
68609;SHT31;55581;46.718;7.690;2023-04-28T11:29:16;17.07;63.25
68609;SHT31;55581;46.718;7.690;2023-04-28T11:31:49;17.04;64.20
68609;SHT31;55581;46.718;7.690;2023-04-28T11:34:18;16.93;63.34
68609;SHT31;55581;46.718;7.690;2023-04-28T11:36:44;16.80;64.30
68609;SHT31;55581;46.718;7.690;2023-04-28T11:39:11;16.80;64.72
68609;SHT31;55581;46.718;7.690;2023-04-28T11:41:41;16.76;65.04
68609;SHT31;55581;46.718;7.690;2023-04-28T11:46:48;17.00;66.77
68609;SHT31;55581;46.718;7.690;2023-04-28T11:49:16;16.80;65.31
68609;SHT31;55581;46.718;7.690;2023-04-28T11:51:42;16.64;63.67
68609;SHT31;55581;46.718;7.690;2023-04-28T11:54:10;16.58;64.18
68609;SHT31;55581;46.718;7.690;2023-04-28T11:56:40;16.59;64.95
68609;SHT31;55581;46.718;7.690;2023-04-28T11:59:08;16.54;66.67
68609;SHT31;55581;46.718;7.690;2023-04-28T12:01:43;16.64;67.03
68609;SHT31;55581;46.718;7.690;2023-04-28T12:04:08;16.65;69.86
68609;SHT31;55581;46.718;7.690;2023-04-28T12:06:33;16.62;70.34
68609;SHT31;55581;46.718;7.690;2023-04-28T12:08:59;16.75;72.63
68609;SHT31;55581;46.718;7.690;2023-04-28T12:11:29;16.83;77.21
68609;SHT31;55581;46.718;7.690;2023-04-28T12:14:09;17.30;75.74
68609;SHT31;55581;46.718;7.690;2023-04-28T12:16:39;17.45;75.26
68609;SHT31;55581;46.718;7.690;2023-04-28T12:19:08;17.57;67.36
68609;SHT31;55581;46.718;7.690;2023-04-28T12:21:35;17.31;65.45
68609;SHT31;55581;46.718;7.690;2023-04-28T12:24:12;16.87;68.96
68609;SHT31;55581;46.718;7.690;2023-04-28T12:26:38;16.77;69.49
68609;SHT31;55581;46.718;7.690;2023-04-28T12:29:07;16.65;71.76
68609;SHT31;55581;46.718;7.690;2023-04-28T12:31:49;16.80;68.38
68609;SHT31;55581;46.718;7.690;2023-04-28T12:34:17;16.68;67.53
68609;SHT31;55581;46.718;7.690;2023-04-28T12:36:42;16.58;68.42
68609;SHT31;55581;46.718;7.690;2023-04-28T12:39:14;16.42;68.94
68609;SHT31;55581;46.718;7.690;2023-04-28T12:41:43;16.35;69.79
68609;SHT31;55581;46.718;7.690;2023-04-28T12:44:08;16.41;70.25
68609;SHT31;55581;46.718;7.690;2023-04-28T12:46:36;16.40;70.42
68609;SHT31;55581;46.718;7.690;2023-04-28T12:49:02;16.48;70.64
68609;SHT31;55581;46.718;7.690;2023-04-28T12:51:28;16.62;70.43
68609;SHT31;55581;46.718;7.690;2023-04-28T12:53:54;16.73;70.08
68609;SHT31;55581;46.718;7.690;2023-04-28T12:56:19;16.84;70.70
68609;SHT31;55581;46.718;7.690;2023-04-28T12:58:47;17.09;70.44
68609;SHT31;55581;46.718;7.690;2023-04-28T13:01:13;17.26;70.04
68609;SHT31;55581;46.718;7.690;2023-04-28T13:03:40;17.10;67.56
68609;SHT31;55581;46.718;7.690;2023-04-28T13:06:05;16.96;68.84
68609;SHT31;55581;46.718;7.690;2023-04-28T13:08:31;16.89;68.21
68609;SHT31;55581;46.718;7.690;2023-04-28T13:10:58;17.00;68.29
68609;SHT31;55581;46.718;7.690;2023-04-28T13:13:23;16.80;68.64
68609;SHT31;55581;46.718;7.690;2023-04-28T13:15:49;16.80;68.62
68609;SHT31;55581;46.718;7.690;2023-04-28T13:18:15;16.73;69.00
68609;SHT31;55581;46.718;7.690;2023-04-28T13:20:40;16.75;70.01
68609;SHT31;55581;46.718;7.690;2023-04-28T13:23:08;16.84;70.19
68609;SHT31;55581;46.718;7.690;2023-04-28T13:25:34;17.06;70.31
68609;SHT31;55581;46.718;7.690;2023-04-28T13:27:59;17.27;69.42
68609;SHT31;55581;46.718;7.690;2023-04-28T13:30:24;17.51;68.44
68609;SHT31;55581;46.718;7.690;2023-04-28T13:32:50;17.75;67.80
68609;SHT31;55581;46.718;7.690;2023-04-28T13:35:16;17.95;67.97
68609;SHT31;55581;46.718;7.690;2023-04-28T13:37:41;18.07;66.74
68609;SHT31;55581;46.718;7.690;2023-04-28T13:40:10;18.14;66.14
68609;SHT31;55581;46.718;7.690;2023-04-28T13:42:36;17.86;67.16
68609;SHT31;55581;46.718;7.690;2023-04-28T13:45:02;17.54;67.89
68609;SHT31;55581;46.718;7.690;2023-04-28T13:47:28;17.24;68.85
68609;SHT31;55581;46.718;7.690;2023-04-28T13:49:57;17.06;70.11
68609;SHT31;55581;46.718;7.690;2023-04-28T13:52:25;16.94;70.90
68609;SHT31;55581;46.718;7.690;2023-04-28T13:54:53;16.94;69.98
68609;SHT31;55581;46.718;7.690;2023-04-28T13:57:23;16.77;69.56
68609;SHT31;55581;46.718;7.690;2023-04-28T13:59:51;16.62;69.85
68609;SHT31;55581;46.718;7.690;2023-04-28T14:02:16;16.54;70.09
68609;SHT31;55581;46.718;7.690;2023-04-28T14:04:42;16.47;70.69
68609;SHT31;55581;46.718;7.690;2023-04-28T14:07:12;16.45;71.47
68609;SHT31;55581;46.718;7.690;2023-04-28T14:09:38;16.51;71.46
68609;SHT31;55581;46.718;7.690;2023-04-28T14:12:05;16.58;71.35
68609;SHT31;55581;46.718;7.690;2023-04-28T14:14:30;16.62;71.23
68609;SHT31;55581;46.718;7.690;2023-04-28T14:16:56;16.65;71.67
68609;SHT31;55581;46.718;7.690;2023-04-28T14:19:22;16.77;72.04
68609;SHT31;55581;46.718;7.690;2023-04-28T14:21:48;17.20;68.36
68609;SHT31;55581;46.718;7.690;2023-04-28T14:24:13;17.68;68.17
68609;SHT31;55581;46.718;7.690;2023-04-28T14:26:39;17.71;68.47
68609;SHT31;55581;46.718;7.690;2023-04-28T14:29:04;17.86;68.14
68609;SHT31;55581;46.718;7.690;2023-04-28T14:31:32;18.04;67.15
68609;SHT31;55581;46.718;7.690;2023-04-28T14:33:58;18.47;67.30
68609;SHT31;55581;46.718;7.690;2023-04-28T14:36:23;18.78;65.89
68609;SHT31;55581;46.718;7.690;2023-04-28T14:38:49;18.72;65.34
68609;SHT31;55581;46.718;7.690;2023-04-28T14:41:14;18.57;65.59
68609;SHT31;55581;46.718;7.690;2023-04-28T14:43:39;18.48;65.29
68609;SHT31;55581;46.718;7.690;2023-04-28T14:46:05;18.45;64.61
68609;SHT31;55581;46.718;7.690;2023-04-28T14:48:31;18.61;65.20
68609;SHT31;55581;46.718;7.690;2023-04-28T14:50:57;18.82;63.88
68609;SHT31;55581;46.718;7.690;2023-04-28T14:53:22;18.29;66.55
68609;SHT31;55581;46.718;7.690;2023-04-28T14:55:48;18.16;66.12
68609;SHT31;55581;46.718;7.690;2023-04-28T14:58:14;18.13;66.16
68609;SHT31;55581;46.718;7.690;2023-04-28T15:00:39;18.02;68.18
68609;SHT31;55581;46.718;7.690;2023-04-28T15:03:05;17.78;66.95
68609;SHT31;55581;46.718;7.690;2023-04-28T15:05:31;17.47;68.27
68609;SHT31;55581;46.718;7.690;2023-04-28T15:07:58;17.44;68.28
68609;SHT31;55581;46.718;7.690;2023-04-28T15:10:25;17.41;70.92
68609;SHT31;55581;46.718;7.690;2023-04-28T15:12:56;17.37;68.95
68609;SHT31;55581;46.718;7.690;2023-04-28T15:15:22;17.39;67.98
68609;SHT31;55581;46.718;7.690;2023-04-28T15:17:47;17.19;68.67
68609;SHT31;55581;46.718;7.690;2023-04-28T15:20:12;16.94;69.80
68609;SHT31;55581;46.718;7.690;2023-04-28T15:22:38;16.86;69.58
68609;SHT31;55581;46.718;7.690;2023-04-28T15:25:04;16.77;69.68
68609;SHT31;55581;46.718;7.690;2023-04-28T15:27:29;16.66;70.28
68609;SHT31;55581;46.718;7.690;2023-04-28T15:29:55;16.56;70.23
68609;SHT31;55581;46.718;7.690;2023-04-28T15:32:20;16.56;69.67
68609;SHT31;55581;46.718;7.690;2023-04-28T15:34:47;16.44;70.28
68609;SHT31;55581;46.718;7.690;2023-04-28T15:37:38;16.38;70.95
68609;SHT31;55581;46.718;7.690;2023-04-28T15:40:05;16.44;72.16
68609;SHT31;55581;46.718;7.690;2023-04-28T15:42:31;16.34;72.39
68609;SHT31;55581;46.718;7.690;2023-04-28T15:44:59;16.42;70.92
68609;SHT31;55581;46.718;7.690;2023-04-28T15:47:26;16.45;73.09
68609;SHT31;55581;46.718;7.690;2023-04-28T15:49:53;16.44;71.84
68609;SHT31;55581;46.718;7.690;2023-04-28T15:52:19;16.45;72.17
68609;SHT31;55581;46.718;7.690;2023-04-28T15:54:44;16.49;71.95
68609;SHT31;55581;46.718;7.690;2023-04-28T15:57:10;16.55;70.56
68609;SHT31;55581;46.718;7.690;2023-04-28T15:59:36;16.45;72.62
68609;SHT31;55581;46.718;7.690;2023-04-28T16:02:01;16.41;73.44